createdAt,value
2023-10-23T13:46:20.793Z,97897.77
2023-10-23T13:48:49.374Z,97902.38
2023-10-23T13:51:17.721Z,97901.90
2023-10-23T13:53:46.538Z,97908.60
2023-10-23T13:56:14.900Z,97909.34
2023-10-23T13:58:44.881Z,97906.66
2023-10-23T14:01:13.633Z,97904.34
2023-10-23T14:03:42.103Z,97904.65
2023-10-23T14:06:10.723Z,97902.98
2023-10-23T14:09:42.419Z,97903.25
2023-10-23T14:11:57.699Z,97903.90
2023-10-23T14:14:15.605Z,97905.96
2023-10-23T14:16:44.015Z,97903.30
2023-10-23T14:19:18.018Z,97907.17
2023-10-23T14:21:51.139Z,97904.67
2023-10-23T14:24:21.331Z,97901.16
2023-10-23T14:26:49.766Z,97900.20
2023-10-23T14:29:18.044Z,97900.06
2023-10-23T14:31:46.311Z,97898.83
2023-10-23T14:34:15.504Z,97896.16
2023-10-23T14:36:43.900Z,97896.58
2023-10-23T14:39:12.156Z,97896.89
2023-10-23T14:41:40.817Z,97896.40
2023-10-23T14:44:09.080Z,97899.63
2023-10-23T14:46:37.423Z,97897.69
2023-10-23T14:49:05.815Z,97895.75
2023-10-23T14:51:34.287Z,97897.83
2023-10-23T14:54:02.529Z,97899.63
2023-10-23T14:56:31.239Z,97901.79
2023-10-23T14:58:59.555Z,97899.59
2023-10-23T15:01:28.094Z,97896.14
2023-10-23T15:04:01.406Z,97896.52
2023-10-23T15:06:30.063Z,97898.48
2023-10-23T15:08:59.852Z,97899.83
2023-10-23T15:11:28.324Z,97903.03
2023-10-23T15:13:56.943Z,97901.02
2023-10-23T15:16:25.271Z,97897.35
2023-10-23T15:18:54.483Z,97898.20
2023-10-23T15:21:22.895Z,97900.14
2023-10-23T15:23:51.321Z,97903.27
2023-10-23T15:26:19.638Z,97906.89
2023-10-23T15:28:48.011Z,97906.73
2023-10-23T15:31:16.441Z,97907.61
2023-10-23T15:33:44.889Z,97909.10
2023-10-23T15:36:13.889Z,97914.44
2023-10-23T15:38:42.956Z,97912.96
2023-10-23T15:41:15.454Z,97916.64
2023-10-23T15:43:47.819Z,97914.14
2023-10-23T15:46:17.536Z,97921.06
2023-10-23T15:48:46.680Z,97920.55
2023-10-23T15:51:16.048Z,97914.67
2023-10-23T15:53:44.389Z,97919.59
2023-10-23T15:56:12.706Z,97925.77
2023-10-23T15:58:41.031Z,97921.43
2023-10-23T16:01:10.563Z,97921.00
2023-10-23T16:03:39.014Z,97925.83
2023-10-23T16:06:09.782Z,97934.79
2023-10-23T16:08:39.007Z,97941.16
2023-10-23T16:11:08.839Z,97948.64
2023-10-23T16:13:38.282Z,97947.98
2023-10-23T16:16:14.566Z,97947.80
2023-10-23T16:18:46.561Z,97952.48
2023-10-23T16:21:18.458Z,97958.20
2023-10-23T16:23:46.745Z,97953.09
2023-10-23T16:26:15.245Z,97954.02
2023-10-23T16:28:43.656Z,97960.23
2023-10-23T16:31:16.698Z,97960.85
2023-10-23T16:33:45.144Z,97954.20
2023-10-23T16:36:13.478Z,97954.90
2023-10-23T16:38:41.857Z,97956.79
2023-10-23T16:41:10.233Z,97951.35
2023-10-23T16:43:41.576Z,97952.45
2023-10-23T16:46:13.058Z,97952.38
2023-10-23T16:48:43.000Z,97953.02
